sensor_id;sensor_type;location;lat;lon;timestamp;pressure;altitude;pressure_sealevel;temperature;humidity
62978;BME280;49073;42.352;23.808;2023-05-11T00:00:10;95028.28;;;6.92;89.39
62978;BME280;49073;42.352;23.808;2023-05-11T00:03:10;95028.94;;;6.89;90.02
62978;BME280;49073;42.352;23.808;2023-05-11T00:06:11;95027.91;;;7.02;90.18
62978;BME280;49073;42.352;23.808;2023-05-11T00:09:11;95017.94;;;6.99;89.65
62978;BME280;49073;42.352;23.808;2023-05-11T00:12:12;95027.09;;;7.10;89.93
62978;BME280;49073;42.352;23.808;2023-05-11T00:15:13;95021.84;;;7.02;89.85
62978;BME280;49073;42.352;23.808;2023-05-11T00:18:13;95023.25;;;6.99;89.99
62978;BME280;49073;42.352;23.808;2023-05-11T00:21:14;95032.03;;;6.91;89.54
62978;BME280;49073;42.352;23.808;2023-05-11T00:24:14;95025.34;;;6.93;90.61
62978;BME280;49073;42.352;23.808;2023-05-11T00:27:15;95029.84;;;6.93;91.17
62978;BME280;49073;42.352;23.808;2023-05-11T00:30:15;95031.91;;;6.87;91.50
62978;BME280;49073;42.352;23.808;2023-05-11T00:33:16;95024.72;;;6.88;91.41
62978;BME280;49073;42.352;23.808;2023-05-11T00:36:17;95033.97;;;6.81;91.63
62978;BME280;49073;42.352;23.808;2023-05-11T00:39:17;95033.78;;;6.87;92.60
62978;BME280;49073;42.352;23.808;2023-05-11T00:42:18;95034.66;;;6.99;91.74
62978;BME280;49073;42.352;23.808;2023-05-11T00:45:18;95029.84;;;6.93;91.91
62978;BME280;49073;42.352;23.808;2023-05-11T00:48:19;95027.47;;;7.00;92.35
62978;BME280;49073;42.352;23.808;2023-05-11T00:51:20;95028.50;;;7.08;92.22
62978;BME280;49073;42.352;23.808;2023-05-11T00:54:21;95027.91;;;7.02;92.44
62978;BME280;49073;42.352;23.808;2023-05-11T00:57:22;95034.38;;;6.92;93.24
62978;BME280;49073;42.352;23.808;2023-05-11T01:00:23;95026.06;;;7.03;93.12
62978;BME280;49073;42.352;23.808;2023-05-11T01:03:24;95029.81;;;7.02;93.51
62978;BME280;49073;42.352;23.808;2023-05-11T01:06:39;95035.41;;;7.00;93.93
62978;BME280;49073;42.352;23.808;2023-05-11T01:09:59;95030.75;;;6.97;93.76
62978;BME280;49073;42.352;23.808;2023-05-11T01:16:20;95023.69;;;6.80;94.40
62978;BME280;49073;42.352;23.808;2023-05-11T01:19:38;95022.47;;;6.68;95.01
62978;BME280;49073;42.352;23.808;2023-05-11T01:23:11;95033.69;;;6.74;95.54
62978;BME280;49073;42.352;23.808;2023-05-11T01:26:33;95036.28;;;6.83;95.33
62978;BME280;49073;42.352;23.808;2023-05-11T01:32:41;95034.50;;;6.66;96.47
62978;BME280;49073;42.352;23.808;2023-05-11T01:35:48;95045.41;;;6.64;96.49
62978;BME280;49073;42.352;23.808;2023-05-11T01:38:53;95034.34;;;6.62;97.11
62978;BME280;49073;42.352;23.808;2023-05-11T01:41:55;95042.47;;;6.57;97.67
62978;BME280;49073;42.352;23.808;2023-05-11T01:44:58;95038.38;;;6.68;98.15
62978;BME280;49073;42.352;23.808;2023-05-11T01:48:02;95044.91;;;6.71;97.27
62978;BME280;49073;42.352;23.808;2023-05-11T01:51:04;95040.63;;;6.58;97.94
62978;BME280;49073;42.352;23.808;2023-05-11T01:54:08;95035.63;;;6.56;98.62
62978;BME280;49073;42.352;23.808;2023-05-11T01:57:11;95043.22;;;6.66;98.83
62978;BME280;49073;42.352;23.808;2023-05-11T02:00:14;95040.09;;;6.64;99.30
62978;BME280;49073;42.352;23.808;2023-05-11T02:03:17;95044.47;;;6.60;99.40
62978;BME280;49073;42.352;23.808;2023-05-11T02:06:20;95045.28;;;6.61;99.13
62978;BME280;49073;42.352;23.808;2023-05-11T02:09:22;95037.22;;;6.48;99.31
62978;BME280;49073;42.352;23.808;2023-05-11T02:12:24;95034.53;;;6.57;99.41
62978;BME280;49073;42.352;23.808;2023-05-11T02:15:27;95035.63;;;6.56;99.38
62978;BME280;49073;42.352;23.808;2023-05-11T02:18:28;95030.78;;;6.58;99.50
62978;BME280;49073;42.352;23.808;2023-05-11T02:21:30;95042.03;;;6.46;100.00
62978;BME280;49073;42.352;23.808;2023-05-11T02:24:32;95036.13;;;6.49;100.00
62978;BME280;49073;42.352;23.808;2023-05-11T02:27:33;95030.53;;;6.42;100.00
62978;BME280;49073;42.352;23.808;2023-05-11T02:30:41;95023.41;;;6.34;100.00
62978;BME280;49073;42.352;23.808;2023-05-11T02:33:47;95027.75;;;6.38;100.00
62978;BME280;49073;42.352;23.808;2023-05-11T02:36:49;95024.78;;;6.40;100.00
62978;BME280;49073;42.352;23.808;2023-05-11T02:39:58;95022.75;;;6.46;100.00
62978;BME280;49073;42.352;23.808;2023-05-11T02:43:08;95022.47;;;6.38;100.00
62978;BME280;49073;42.352;23.808;2023-05-11T02:46:15;95024.19;;;6.34;100.00
62978;BME280;49073;42.352;23.808;2023-05-11T02:49:17;95020.16;;;6.28;100.00
62978;BME280;49073;42.352;23.808;2023-05-11T02:52:21;95023.13;;;6.26;100.00
62978;BME280;49073;42.352;23.808;2023-05-11T02:55:23;95021.38;;;6.31;100.00
62978;BME280;49073;42.352;23.808;2023-05-11T02:58:25;95025.75;;;6.35;100.00
62978;BME280;49073;42.352;23.808;2023-05-11T03:01:25;95028.69;;;6.34;100.00
62978;BME280;49073;42.352;23.808;2023-05-11T03:04:26;95026.97;;;6.38;100.00
62978;BME280;49073;42.352;23.808;2023-05-11T03:07:27;95026.84;;;6.34;100.00
62978;BME280;49073;42.352;23.808;2023-05-11T03:10:28;95022.00;;;6.36;100.00
62978;BME280;49073;42.352;23.808;2023-05-11T03:13:29;95023.56;;;6.37;100.00
62978;BME280;49073;42.352;23.808;2023-05-11T03:16:31;95033.41;;;6.28;100.00
62978;BME280;49073;42.352;23.808;2023-05-11T03:19:32;95031.22;;;6.30;100.00
62978;BME280;49073;42.352;23.808;2023-05-11T03:22:33;95031.78;;;6.36;100.00
62978;BME280;49073;42.352;23.808;2023-05-11T03:25:35;95033.63;;;6.44;100.00
62978;BME280;49073;42.352;23.808;2023-05-11T03:28:36;95031.44;;;6.46;100.00
62978;BME280;49073;42.352;23.808;2023-05-11T03:31:38;95031.16;;;6.39;100.00
62978;BME280;49073;42.352;23.808;2023-05-11T03:34:38;95035.06;;;6.42;100.00
62978;BME280;49073;42.352;23.808;2023-05-11T03:37:40;95026.69;;;6.31;100.00
62978;BME280;49073;42.352;23.808;2023-05-11T03:40:42;95036.63;;;6.34;100.00
62978;BME280;49073;42.352;23.808;2023-05-11T03:43:45;95033.69;;;6.26;100.00
62978;BME280;49073;42.352;23.808;2023-05-11T03:46:47;95032.31;;;6.20;100.00
62978;BME280;49073;42.352;23.808;2023-05-11T03:49:50;95040.44;;;6.15;100.00
62978;BME280;49073;42.352;23.808;2023-05-11T03:52:51;95042.44;;;6.18;100.00
62978;BME280;49073;42.352;23.808;2023-05-11T03:55:52;95049.75;;;6.13;100.00
62978;BME280;49073;42.352;23.808;2023-05-11T03:58:52;95049.13;;;6.24;100.00
62978;BME280;49073;42.352;23.808;2023-05-11T04:01:53;95059.88;;;6.19;100.00
62978;BME280;49073;42.352;23.808;2023-05-11T04:04:54;95062.34;;;6.16;100.00
62978;BME280;49073;42.352;23.808;2023-05-11T04:07:55;95063.78;;;6.13;100.00
62978;BME280;49073;42.352;23.808;2023-05-11T04:10:55;95054.28;;;6.03;100.00
62978;BME280;49073;42.352;23.808;2023-05-11T04:13:56;95062.06;;;6.00;100.00
62978;BME280;49073;42.352;23.808;2023-05-11T04:16:56;95051.03;;;6.06;100.00
62978;BME280;49073;42.352;23.808;2023-05-11T04:19:57;95056.78;;;6.08;100.00
62978;BME280;49073;42.352;23.808;2023-05-11T04:22:57;95056.19;;;6.03;100.00
62978;BME280;49073;42.352;23.808;2023-05-11T04:25:58;95054.47;;;6.07;100.00
62978;BME280;49073;42.352;23.808;2023-05-11T04:28:58;95062.38;;;5.98;100.00
62978;BME280;49073;42.352;23.808;2023-05-11T04:31:59;95066.28;;;6.01;100.00
62978;BME280;49073;42.352;23.808;2023-05-11T04:34:59;95063.78;;;6.04;100.00
62978;BME280;49073;42.352;23.808;2023-05-11T04:38:00;95064.72;;;5.91;100.00
62978;BME280;49073;42.352;23.808;2023-05-11T04:41:04;95066.72;;;5.94;100.00
62978;BME280;49073;42.352;23.808;2023-05-11T04:44:04;95062.22;;;5.94;100.00
62978;BME280;49073;42.352;23.808;2023-05-11T04:47:05;95067.22;;;6.05;100.00
62978;BME280;49073;42.352;23.808;2023-05-11T04:50:06;95075.91;;;6.05;100.00
62978;BME280;49073;42.352;23.808;2023-05-11T04:53:06;95072.97;;;6.07;100.00
62978;BME280;49073;42.352;23.808;2023-05-11T04:56:07;95074.53;;;6.08;100.00
62978;BME280;49073;42.352;23.808;2023-05-11T04:59:07;95077.47;;;5.97;100.00
62978;BME280;49073;42.352;23.808;2023-05-11T05:02:09;95078.09;;;5.94;100.00
62978;BME280;49073;42.352;23.808;2023-05-11T05:05:11;95075.75;;;5.84;100.00
62978;BME280;49073;42.352;23.808;2023-05-11T05:08:11;95076.09;;;5.91;100.00
62978;BME280;49073;42.352;23.808;2023-05-11T05:11:12;95073.13;;;5.93;100.00
62978;BME280;49073;42.352;23.808;2023-05-11T05:14:13;95082.59;;;5.85;100.00
62978;BME280;49073;42.352;23.808;2023-05-11T05:17:13;95083.84;;;5.79;100.00
62978;BME280;49073;42.352;23.808;2023-05-11T05:20:14;95067.81;;;5.84;100.00
62978;BME280;49073;42.352;23.808;2023-05-11T05:23:15;95079.94;;;5.85;100.00
62978;BME280;49073;42.352;23.808;2023-05-11T05:26:16;95088.34;;;5.96;100.00
62978;BME280;49073;42.352;23.808;2023-05-11T05:29:16;95086.50;;;6.05;100.00
62978;BME280;49073;42.352;23.808;2023-05-11T05:32:16;95089.16;;;6.05;100.00
62978;BME280;49073;42.352;23.808;2023-05-11T05:35:17;95086.97;;;6.07;100.00
62978;BME280;49073;42.352;23.808;2023-05-11T05:38:17;95091.34;;;6.03;100.00
62978;BME280;49073;42.352;23.808;2023-05-11T05:41:19;95084.78;;;6.09;100.00
62978;BME280;49073;42.352;23.808;2023-05-11T05:44:21;95091.34;;;6.12;100.00
62978;BME280;49073;42.352;23.808;2023-05-11T05:47:21;95088.84;;;6.07;100.00
62978;BME280;49073;42.352;23.808;2023-05-11T05:50:22;95099.09;;;6.08;100.00
62978;BME280;49073;42.352;23.808;2023-05-11T05:53:22;95085.88;;;6.00;100.00
62978;BME280;49073;42.352;23.808;2023-05-11T05:56:23;95091.63;;;5.93;100.00
62978;BME280;49073;42.352;23.808;2023-05-11T05:59:24;95088.53;;;6.00;100.00
62978;BME280;49073;42.352;23.808;2023-05-11T06:02:24;95091.78;;;5.96;100.00
62978;BME280;49073;42.352;23.808;2023-05-11T06:05:25;95094.44;;;6.05;100.00
62978;BME280;49073;42.352;23.808;2023-05-11T06:08:25;95094.44;;;6.14;100.00
62978;BME280;49073;42.352;23.808;2023-05-11T06:11:26;95099.41;;;6.16;100.00
62978;BME280;49073;42.352;23.808;2023-05-11T06:14:27;95097.38;;;6.21;100.00
62978;BME280;49073;42.352;23.808;2023-05-11T06:17:27;95099.22;;;6.38;100.00
62978;BME280;49073;42.352;23.808;2023-05-11T06:20:28;95098.91;;;6.40;100.00
62978;BME280;49073;42.352;23.808;2023-05-11T06:23:28;95103.56;;;6.43;100.00
62978;BME280;49073;42.352;23.808;2023-05-11T06:26:28;95108.72;;;6.48;100.00
62978;BME280;49073;42.352;23.808;2023-05-11T06:29:29;95097.25;;;6.65;100.00
62978;BME280;49073;42.352;23.808;2023-05-11T06:32:30;95113.47;;;6.64;100.00
62978;BME280;49073;42.352;23.808;2023-05-11T06:35:30;95111.31;;;6.66;100.00
62978;BME280;49073;42.352;23.808;2023-05-11T06:38:31;95110.19;;;6.67;100.00
62978;BME280;49073;42.352;23.808;2023-05-11T06:41:31;95109.75;;;6.65;100.00
62978;BME280;49073;42.352;23.808;2023-05-11T06:44:31;95109.41;;;6.66;100.00
62978;BME280;49073;42.352;23.808;2023-05-11T06:47:33;95103.31;;;6.75;100.00
62978;BME280;49073;42.352;23.808;2023-05-11T06:50:33;95105.75;;;6.89;100.00
62978;BME280;49073;42.352;23.808;2023-05-11T06:53:34;95107.41;;;7.02;100.00
62978;BME280;49073;42.352;23.808;2023-05-11T06:56:34;95105.22;;;7.04;100.00
62978;BME280;49073;42.352;23.808;2023-05-11T06:59:36;95109.75;;;7.04;100.00
62978;BME280;49073;42.352;23.808;2023-05-11T07:02:36;95117.22;;;7.10;100.00
62978;BME280;49073;42.352;23.808;2023-05-11T07:05:37;95111.13;;;7.10;100.00
62978;BME280;49073;42.352;23.808;2023-05-11T07:08:38;95111.28;;;7.13;100.00
62978;BME280;49073;42.352;23.808;2023-05-11T07:11:39;95113.75;;;7.10;100.00
62978;BME280;49073;42.352;23.808;2023-05-11T07:14:40;95107.69;;;7.09;100.00
62978;BME280;49073;42.352;23.808;2023-05-11T07:17:40;95109.38;;;7.14;100.00
62978;BME280;49073;42.352;23.808;2023-05-11T07:20:41;95111.38;;;7.17;100.00
62978;BME280;49073;42.352;23.808;2023-05-11T07:23:42;95112.44;;;7.25;100.00
62978;BME280;49073;42.352;23.808;2023-05-11T07:26:43;95112.75;;;7.23;100.00
62978;BME280;49073;42.352;23.808;2023-05-11T07:29:44;95112.00;;;7.23;100.00
62978;BME280;49073;42.352;23.808;2023-05-11T07:32:44;95124.38;;;7.10;100.00
62978;BME280;49073;42.352;23.808;2023-05-11T07:35:45;95119.34;;;6.78;100.00
62978;BME280;49073;42.352;23.808;2023-05-11T07:38:45;95114.50;;;6.89;100.00
62978;BME280;49073;42.352;23.808;2023-05-11T07:41:46;95118.31;;;7.09;100.00
62978;BME280;49073;42.352;23.808;2023-05-11T07:44:46;95114.78;;;6.96;100.00
62978;BME280;49073;42.352;23.808;2023-05-11T07:47:47;95112.94;;;6.88;100.00
62978;BME280;49073;42.352;23.808;2023-05-11T07:50:47;95112.78;;;6.84;100.00
62978;BME280;49073;42.352;23.808;2023-05-11T07:53:51;95117.50;;;7.09;100.00
62978;BME280;49073;42.352;23.808;2023-05-11T07:56:51;95119.88;;;7.02;100.00
62978;BME280;49073;42.352;23.808;2023-05-11T07:59:52;95123.72;;;6.83;100.00
62978;BME280;49073;42.352;23.808;2023-05-11T08:02:53;95129.66;;;6.80;100.00
62978;BME280;49073;42.352;23.808;2023-05-11T08:05:53;95129.50;;;6.67;100.00
62978;BME280;49073;42.352;23.808;2023-05-11T08:08:54;95125.91;;;6.72;100.00
62978;BME280;49073;42.352;23.808;2023-05-11T08:11:54;95115.00;;;6.74;100.00
62978;BME280;49073;42.352;23.808;2023-05-11T08:14:55;95115.16;;;6.77;100.00
62978;BME280;49073;42.352;23.808;2023-05-11T08:17:56;95113.91;;;6.75;100.00
62978;BME280;49073;42.352;23.808;2023-05-11T08:20:56;95117.34;;;6.75;100.00
62978;BME280;49073;42.352;23.808;2023-05-11T08:23:57;95125.56;;;6.82;100.00
62978;BME280;49073;42.352;23.808;2023-05-11T08:26:58;95122.47;;;6.80;100.00
62978;BME280;49073;42.352;23.808;2023-05-11T08:29:59;95122.78;;;6.79;100.00
62978;BME280;49073;42.352;23.808;2023-05-11T08:32:59;95127.88;;;6.93;100.00
62978;BME280;49073;42.352;23.808;2023-05-11T08:36:00;95129.41;;;6.94;100.00
62978;BME280;49073;42.352;23.808;2023-05-11T08:39:01;95135.03;;;6.92;99.85
62978;BME280;49073;42.352;23.808;2023-05-11T08:42:02;95132.97;;;6.98;98.54
62978;BME280;49073;42.352;23.808;2023-05-11T08:45:05;95126.38;;;7.13;98.74
62978;BME280;49073;42.352;23.808;2023-05-11T08:48:06;95141.47;;;7.21;97.24
62978;BME280;49073;42.352;23.808;2023-05-11T08:51:08;95133.19;;;7.23;96.04
62978;BME280;49073;42.352;23.808;2023-05-11T08:54:08;95136.03;;;7.18;96.53
62978;BME280;49073;42.352;23.808;2023-05-11T08:57:09;95132.88;;;7.24;97.22
62978;BME280;49073;42.352;23.808;2023-05-11T09:00:11;95122.78;;;7.18;96.93
62978;BME280;49073;42.352;23.808;2023-05-11T09:03:13;95126.66;;;7.20;96.92
62978;BME280;49073;42.352;23.808;2023-05-11T09:06:14;95122.13;;;7.21;96.38
62978;BME280;49073;42.352;23.808;2023-05-11T09:09:15;95126.16;;;7.27;95.46
62978;BME280;49073;42.352;23.808;2023-05-11T09:12:17;95120.75;;;7.45;94.04
62978;BME280;49073;42.352;23.808;2023-05-11T09:15:19;95114.38;;;7.67;92.80
62978;BME280;49073;42.352;23.808;2023-05-11T09:18:20;95112.88;;;7.78;91.79
62978;BME280;49073;42.352;23.808;2023-05-11T09:21:23;95109.84;;;7.67;90.75
62978;BME280;49073;42.352;23.808;2023-05-11T09:24:24;95118.38;;;7.73;91.43
62978;BME280;49073;42.352;23.808;2023-05-11T09:27:25;95118.25;;;7.69;89.98
62978;BME280;49073;42.352;23.808;2023-05-11T09:30:26;95105.63;;;7.88;89.45
62978;BME280;49073;42.352;23.808;2023-05-11T09:33:27;95108.81;;;7.81;88.96
62978;BME280;49073;42.352;23.808;2023-05-11T09:36:28;95104.59;;;7.80;89.53
62978;BME280;49073;42.352;23.808;2023-05-11T09:39:33;95107.66;;;7.69;91.08
62978;BME280;49073;42.352;23.808;2023-05-11T09:42:34;95106.22;;;7.72;91.96
62978;BME280;49073;42.352;23.808;2023-05-11T09:48:36;95102.22;;;7.66;93.00
62978;BME280;49073;42.352;23.808;2023-05-11T09:51:38;95109.97;;;7.71;93.20
62978;BME280;49073;42.352;23.808;2023-05-11T09:54:44;95099.75;;;7.61;92.38
62978;BME280;49073;42.352;23.808;2023-05-11T09:57:55;95098.66;;;7.62;92.93
62978;BME280;49073;42.352;23.808;2023-05-11T10:00:56;95099.69;;;7.69;93.55
62978;BME280;49073;42.352;23.808;2023-05-11T10:03:59;95104.34;;;7.72;93.29
62978;BME280;49073;42.352;23.808;2023-05-11T10:07:00;95097.81;;;7.70;93.35
62978;BME280;49073;42.352;23.808;2023-05-11T10:10:03;95103.16;;;7.61;94.12
62978;BME280;49073;42.352;23.808;2023-05-11T10:13:06;95103.63;;;7.63;95.25
62978;BME280;49073;42.352;23.808;2023-05-11T10:16:08;95102.34;;;7.69;96.07
62978;BME280;49073;42.352;23.808;2023-05-11T10:19:10;95097.41;;;7.80;95.16
62978;BME280;49073;42.352;23.808;2023-05-11T10:22:11;95095.81;;;7.88;93.98
62978;BME280;49073;42.352;23.808;2023-05-11T10:25:13;95092.94;;;7.93;93.72
62978;BME280;49073;42.352;23.808;2023-05-11T10:28:15;95092.25;;;7.84;91.82
62978;BME280;49073;42.352;23.808;2023-05-11T10:31:16;95094.25;;;7.87;92.94
62978;BME280;49073;42.352;23.808;2023-05-11T10:34:23;95081.94;;;8.04;93.87
62978;BME280;49073;42.352;23.808;2023-05-11T10:37:24;95075.13;;;7.94;95.04
62978;BME280;49073;42.352;23.808;2023-05-11T10:40:25;95082.53;;;7.88;95.47
62978;BME280;49073;42.352;23.808;2023-05-11T10:46:51;95077.50;;;8.08;96.64
62978;BME280;49073;42.352;23.808;2023-05-11T11:03:30;95058.22;;;8.20;95.47
62978;BME280;49073;42.352;23.808;2023-05-11T11:06:32;95062.41;;;8.21;95.17
62978;BME280;49073;42.352;23.808;2023-05-11T11:13:06;95050.69;;;8.22;93.42
62978;BME280;49073;42.352;23.808;2023-05-11T11:16:08;95047.59;;;8.20;93.25
62978;BME280;49073;42.352;23.808;2023-05-11T11:25:51;95052.25;;;8.35;94.57
62978;BME280;49073;42.352;23.808;2023-05-11T11:38:57;95053.38;;;8.34;95.17
62978;BME280;49073;42.352;23.808;2023-05-11T11:42:03;95043.97;;;8.37;94.87
62978;BME280;49073;42.352;23.808;2023-05-11T11:45:27;95048.72;;;8.31;94.58
62978;BME280;49073;42.352;23.808;2023-05-11T11:48:34;95045.03;;;8.23;93.85
62978;BME280;49073;42.352;23.808;2023-05-11T11:51:35;95045.75;;;8.45;93.23
62978;BME280;49073;42.352;23.808;2023-05-11T11:54:40;95037.78;;;8.45;92.60
62978;BME280;49073;42.352;23.808;2023-05-11T11:57:41;95042.00;;;8.46;92.22
62978;BME280;49073;42.352;23.808;2023-05-11T12:00:46;95037.59;;;8.50;91.87
62978;BME280;49073;42.352;23.808;2023-05-11T12:04:19;95037.59;;;8.50;91.88
62978;BME280;49073;42.352;23.808;2023-05-11T12:07:24;95045.84;;;8.49;91.69
62978;BME280;49073;42.352;23.808;2023-05-11T12:10:25;95032.69;;;8.40;90.71
62978;BME280;49073;42.352;23.808;2023-05-11T12:13:26;95036.25;;;8.44;92.05
62978;BME280;49073;42.352;23.808;2023-05-11T12:16:28;95028.00;;;8.58;92.29
62978;BME280;49073;42.352;23.808;2023-05-11T12:19:28;95027.44;;;8.65;92.11
62978;BME280;49073;42.352;23.808;2023-05-11T12:22:30;95036.41;;;8.72;91.82
62978;BME280;49073;42.352;23.808;2023-05-11T12:25:31;95025.44;;;8.74;91.69
62978;BME280;49073;42.352;23.808;2023-05-11T12:28:32;95019.34;;;8.73;90.78
62978;BME280;49073;42.352;23.808;2023-05-11T12:31:41;95016.25;;;8.71;89.95
62978;BME280;49073;42.352;23.808;2023-05-11T12:34:41;95009.94;;;8.76;90.17
62978;BME280;49073;42.352;23.808;2023-05-11T12:37:42;95008.28;;;8.71;90.87
62978;BME280;49073;42.352;23.808;2023-05-11T12:40:51;94997.88;;;8.79;90.84
62978;BME280;49073;42.352;23.808;2023-05-11T12:43:53;94989.56;;;8.80;88.26
62978;BME280;49073;42.352;23.808;2023-05-11T12:46:54;94991.44;;;8.80;88.32
62978;BME280;49073;42.352;23.808;2023-05-11T12:49:55;94995.13;;;8.87;89.37
62978;BME280;49073;42.352;23.808;2023-05-11T12:53:11;94987.56;;;8.90;89.25
62978;BME280;49073;42.352;23.808;2023-05-11T12:56:12;94999.19;;;8.97;88.79
62978;BME280;49073;42.352;23.808;2023-05-11T12:59:42;94988.03;;;8.92;89.16
62978;BME280;49073;42.352;23.808;2023-05-11T13:02:47;94984.25;;;8.93;89.14
62978;BME280;49073;42.352;23.808;2023-05-11T13:05:49;94982.56;;;9.00;89.30
62978;BME280;49073;42.352;23.808;2023-05-11T13:08:50;94991.66;;;8.99;89.47
62978;BME280;49073;42.352;23.808;2023-05-11T13:12:11;94974.94;;;8.99;87.84
62978;BME280;49073;42.352;23.808;2023-05-11T13:15:12;94978.78;;;9.14;88.53
62978;BME280;49073;42.352;23.808;2023-05-11T13:18:15;94970.69;;;9.10;87.76
62978;BME280;49073;42.352;23.808;2023-05-11T13:21:17;94978.16;;;9.33;88.09
62978;BME280;49073;42.352;23.808;2023-05-11T13:24:22;94967.88;;;9.31;85.82
62978;BME280;49073;42.352;23.808;2023-05-11T13:27:23;94967.06;;;9.43;84.71
62978;BME280;49073;42.352;23.808;2023-05-11T13:30:23;94965.91;;;9.57;83.57
62978;BME280;49073;42.352;23.808;2023-05-11T13:33:24;94957.25;;;9.60;83.70
62978;BME280;49073;42.352;23.808;2023-05-11T13:36:25;94954.78;;;9.67;83.00
62978;BME280;49073;42.352;23.808;2023-05-11T13:39:25;94963.56;;;9.84;84.59
62978;BME280;49073;42.352;23.808;2023-05-11T13:42:27;94969.63;;;9.68;82.29
62978;BME280;49073;42.352;23.808;2023-05-11T13:45:28;94963.53;;;9.68;83.74
62978;BME280;49073;42.352;23.808;2023-05-11T13:48:29;94961.94;;;9.79;84.33
62978;BME280;49073;42.352;23.808;2023-05-11T13:51:30;94964.66;;;9.83;83.29
62978;BME280;49073;42.352;23.808;2023-05-11T13:54:31;94962.63;;;9.92;81.99
62978;BME280;49073;42.352;23.808;2023-05-11T13:57:31;94959.72;;;9.97;81.21
62978;BME280;49073;42.352;23.808;2023-05-11T14:00:32;94949.75;;;9.94;80.34
62978;BME280;49073;42.352;23.808;2023-05-11T14:03:34;94959.22;;;10.08;82.39
62978;BME280;49073;42.352;23.808;2023-05-11T14:06:34;94953.66;;;10.13;81.83
62978;BME280;49073;42.352;23.808;2023-05-11T14:09:35;94951.16;;;10.20;82.99
62978;BME280;49073;42.352;23.808;2023-05-11T14:12:36;94959.31;;;10.11;81.40
62978;BME280;49073;42.352;23.808;2023-05-11T14:15:36;94956.81;;;10.02;81.35
62978;BME280;49073;42.352;23.808;2023-05-11T14:18:37;94960.56;;;10.01;81.72
62978;BME280;49073;42.352;23.808;2023-05-11T14:21:38;94968.91;;;10.00;81.60
62978;BME280;49073;42.352;23.808;2023-05-11T14:24:38;94956.56;;;10.08;83.09
62978;BME280;49073;42.352;23.808;2023-05-11T14:27:39;94961.09;;;10.07;81.42
62978;BME280;49073;42.352;23.808;2023-05-11T14:30:42;94955.88;;;10.11;81.86
62978;BME280;49073;42.352;23.808;2023-05-11T14:33:43;94954.66;;;10.08;80.75
62978;BME280;49073;42.352;23.808;2023-05-11T14:36:43;94963.94;;;10.14;81.28
62978;BME280;49073;42.352;23.808;2023-05-11T14:39:44;94971.66;;;10.19;82.52
62978;BME280;49073;42.352;23.808;2023-05-11T14:42:45;94964.91;;;10.22;80.76
62978;BME280;49073;42.352;23.808;2023-05-11T14:45:45;94949.41;;;10.28;81.45
62978;BME280;49073;42.352;23.808;2023-05-11T14:48:46;94961.28;;;10.30;80.98
62978;BME280;49073;42.352;23.808;2023-05-11T14:51:46;94963.63;;;10.32;79.80
62978;BME280;49073;42.352;23.808;2023-05-11T14:54:47;94961.28;;;10.14;80.20
62978;BME280;49073;42.352;23.808;2023-05-11T14:57:48;94956.56;;;10.08;79.74
62978;BME280;49073;42.352;23.808;2023-05-11T15:00:49;94966.78;;;10.06;80.72
62978;BME280;49073;42.352;23.808;2023-05-11T15:03:49;94972.19;;;10.09;80.76
62978;BME280;49073;42.352;23.808;2023-05-11T15:06:51;94961.47;;;10.06;81.07
62978;BME280;49073;42.352;23.808;2023-05-11T15:09:51;94954.16;;;10.02;80.31
62978;BME280;49073;42.352;23.808;2023-05-11T15:12:52;94952.69;;;10.05;80.60
62978;BME280;49073;42.352;23.808;2023-05-11T15:15:53;94949.69;;;10.23;81.45
62978;BME280;49073;42.352;23.808;2023-05-11T15:18:53;94953.66;;;10.13;80.82
62978;BME280;49073;42.352;23.808;2023-05-11T15:21:54;94948.56;;;10.08;79.56
62978;BME280;49073;42.352;23.808;2023-05-11T15:24:55;94953.38;;;10.02;80.60
62978;BME280;49073;42.352;23.808;2023-05-11T15:27:55;94948.72;;;9.99;81.24
62978;BME280;49073;42.352;23.808;2023-05-11T15:30:56;94956.81;;;10.02;82.24
62978;BME280;49073;42.352;23.808;2023-05-11T15:33:56;94950.59;;;9.98;81.83
62978;BME280;49073;42.352;23.808;2023-05-11T15:36:57;94959.38;;;9.99;80.89
62978;BME280;49073;42.352;23.808;2023-05-11T15:40:00;94951.75;;;10.13;81.79
62978;BME280;49073;42.352;23.808;2023-05-11T15:43:00;94952.97;;;10.16;81.83
62978;BME280;49073;42.352;23.808;2023-05-11T15:46:01;94954.41;;;10.29;82.72
62978;BME280;49073;42.352;23.808;2023-05-11T15:49:02;94943.34;;;10.27;82.03
62978;BME280;49073;42.352;23.808;2023-05-11T15:52:03;94943.84;;;10.17;81.79
62978;BME280;49073;42.352;23.808;2023-05-11T15:55:05;94943.50;;;10.18;82.33
62978;BME280;49073;42.352;23.808;2023-05-11T15:58:06;94935.19;;;10.20;82.60
62978;BME280;49073;42.352;23.808;2023-05-11T16:01:07;94942.13;;;10.09;82.38
62978;BME280;49073;42.352;23.808;2023-05-11T16:04:08;94940.50;;;10.20;81.37
62978;BME280;49073;42.352;23.808;2023-05-11T16:07:08;94945.22;;;10.11;82.04
62978;BME280;49073;42.352;23.808;2023-05-11T16:10:09;94932.94;;;10.06;82.64
62978;BME280;49073;42.352;23.808;2023-05-11T16:13:10;94940.50;;;10.04;82.58
62978;BME280;49073;42.352;23.808;2023-05-11T16:16:10;94940.75;;;9.99;83.56
62978;BME280;49073;42.352;23.808;2023-05-11T16:19:11;94937.25;;;10.11;83.90
62978;BME280;49073;42.352;23.808;2023-05-11T16:22:11;94940.06;;;10.18;83.89
62978;BME280;49073;42.352;23.808;2023-05-11T16:25:12;94939.72;;;10.19;82.74
62978;BME280;49073;42.352;23.808;2023-05-11T16:28:13;94944.06;;;10.40;84.75
62978;BME280;49073;42.352;23.808;2023-05-11T16:31:13;94941.25;;;10.37;85.71
62978;BME280;49073;42.352;23.808;2023-05-11T16:34:14;94939.03;;;10.23;85.03
62978;BME280;49073;42.352;23.808;2023-05-11T16:37:15;94947.44;;;10.25;85.69
62978;BME280;49073;42.352;23.808;2023-05-11T16:40:15;94937.31;;;10.14;85.95
62978;BME280;49073;42.352;23.808;2023-05-11T16:43:20;94939.19;;;10.30;86.15